Time;durP1;ratioP1;P1;durP2;ratioP2;P2;SDS_P1;SDS_P2;PMS_P1;PMS_P2;Temp;Humidity;BMP_temperature;BMP_pressure;BME280_temperature;BME280_humidity;BME280_pressure;Samples;Min_cycle;Max_cycle;Signal;HPM_P1;HPM_P2
2022/09/14 00:03:12;;;;;;;8.33;7.33;;;15.20;99.90;;;;;;8361315;28;20178;-67
2022/09/14 00:07:13;;;;;;;8.23;7.37;;;15.30;99.90;;;;;;8362810;28;20177;-67
2022/09/14 00:11:14;;;;;;;8.43;7.60;;;15.40;99.90;;;;;;8364958;28;20307;-67
2022/09/14 00:15:15;;;;;;;7.30;6.47;;;15.40;99.90;;;;;;8363882;28;20189;-67
2022/09/14 00:19:21;;;;;;;8.30;7.47;;;15.40;99.90;;;;;;8358331;28;20218;-67
2022/09/14 00:23:22;;;;;;;9.23;7.40;;;15.50;99.90;;;;;;8370507;28;20192;-67
2022/09/14 00:27:23;;;;;;;8.03;7.23;;;15.60;99.90;;;;;;8360507;28;20178;-67
2022/09/14 00:31:25;;;;;;;8.90;7.70;;;15.60;99.90;;;;;;8365449;28;20195;-67
2022/09/14 00:35:26;;;;;;;8.77;7.27;;;15.60;25.90;;;;;;8362115;28;20244;-67
2022/09/14 00:39:27;;;;;;;8.50;6.87;;;15.70;1.00;;;;;;8360850;28;20210;-67
2022/09/14 00:43:32;;;;;;;7.93;7.20;;;15.70;1.00;;;;;;8360461;28;20401;-67
2022/09/14 00:47:34;;;;;;;8.43;6.87;;;15.70;1.00;;;;;;8358691;28;20260;-67
2022/09/14 00:51:38;;;;;;;7.80;6.70;;;15.70;99.90;;;;;;8361436;28;20224;-67
2022/09/14 00:55:39;;;;;;;7.40;6.33;;;15.60;99.90;;;;;;8364345;28;20186;-66
2022/09/14 00:59:41;;;;;;;6.97;6.27;;;15.50;99.90;;;;;;8363260;28;20205;-65
2022/09/14 01:03:42;;;;;;;8.20;7.40;;;15.30;99.90;;;;;;8360159;28;20277;-66
2022/09/14 01:08:00;;;;;;;7.77;6.90;;;15.10;43.30;;;;;;8360005;28;20182;-66
2022/09/14 01:12:10;;;;;;;15.17;7.57;;;15.00;99.90;;;;;;8364374;28;20204;-66
2022/09/14 01:16:20;;;;;;;7.80;7.10;;;14.90;99.90;;;;;;8364602;28;20189;-67
2022/09/14 01:20:27;;;;;;;9.70;7.10;;;14.80;99.90;;;;;;8366562;28;20229;-66
2022/09/14 01:25:27;;;;;;;8.17;7.37;;;14.70;99.90;;;;;;8373644;28;20188;-67
2022/09/14 01:29:33;;;;;;;8.90;7.83;;;14.60;99.90;;;;;;8344820;28;20189;-67
2022/09/14 01:33:40;;;;;;;8.53;7.53;;;14.50;99.90;;;;;;8374379;28;20181;-67
2022/09/14 01:37:50;;;;;;;8.43;7.60;;;14.30;99.90;;;;;;8373394;28;20170;-67
2022/09/14 01:41:55;;;;;;;8.20;7.40;;;14.20;99.90;;;;;;8371507;28;20198;-68
2022/09/14 01:46:02;;;;;;;10.57;9.30;;;14.10;99.90;;;;;;8370723;28;20235;-67
2022/09/14 01:50:09;;;;;;;9.57;8.17;;;14.10;99.90;;;;;;8368328;28;20228;-66
2022/09/14 01:54:22;;;;;;;7.37;6.67;;;14.00;99.90;;;;;;8368259;28;20547;-66
2022/09/14 01:58:32;;;;;;;15.63;9.40;;;13.90;99.90;;;;;;8363605;28;20198;-67
2022/09/14 02:02:51;;;;;;;13.53;10.43;;;13.90;99.90;;;;;;8364344;28;20235;-66
2022/09/14 02:06:52;;;;;;;11.97;9.27;;;14.00;99.90;;;;;;8364973;28;20178;-66
2022/09/14 02:10:53;;;;;;;9.43;8.40;;;14.00;99.90;;;;;;8367338;28;20201;-66
2022/09/14 02:14:54;;;;;;;9.73;8.30;;;13.90;99.90;;;;;;8365138;28;20201;-66
2022/09/14 02:18:55;;;;;;;9.47;8.57;;;13.80;99.90;;;;;;8367354;28;20209;-67
2022/09/14 02:22:56;;;;;;;9.37;7.83;;;13.80;99.90;;;;;;8370015;28;20190;-67
2022/09/14 02:26:58;;;;;;;11.00;9.40;;;13.70;99.90;;;;;;8366450;28;20182;-67
2022/09/14 02:31:11;;;;;;;10.37;8.17;;;13.70;99.90;;;;;;8367318;28;20185;-67
2022/09/14 02:35:50;;;;;;;10.47;9.37;;;13.70;99.90;;;;;;8362290;28;20185;-67
2022/09/14 02:40:30;;;;;;;8.87;7.97;;;13.60;99.90;;;;;;8366298;28;20213;-68
2022/09/14 02:45:09;;;;;;;8.73;7.13;;;13.60;99.90;;;;;;8367784;28;20216;-68
2022/09/14 02:49:35;;;;;;;10.03;8.60;;;13.50;99.90;;;;;;8367681;28;20278;-66
2022/09/14 02:53:48;;;;;;;12.33;9.63;;;13.50;99.90;;;;;;8365256;28;20193;-67
2022/09/14 02:57:59;;;;;;;12.70;8.90;;;13.60;99.90;;;;;;8365596;28;20290;-67
2022/09/14 03:02:00;;;;;;;11.13;9.93;;;13.50;99.90;;;;;;8370400;28;20209;-67
2022/09/14 03:06:02;;;;;;;13.13;9.87;;;13.60;99.90;;;;;;8362551;28;20185;-68
2022/09/14 03:10:03;;;;;;;11.87;9.43;;;13.60;99.90;;;;;;8369198;28;20193;-68
2022/09/14 03:14:07;;;;;;;10.90;9.80;;;13.60;99.90;;;;;;8369330;28;20254;-68
2022/09/14 03:18:08;;;;;;;10.00;8.83;;;13.60;99.90;;;;;;8368953;28;20201;-67
2022/09/14 03:22:09;;;;;;;13.33;11.43;;;13.50;99.90;;;;;;8366492;28;20185;-68
2022/09/14 03:26:13;;;;;;;14.97;12.20;;;13.60;99.90;;;;;;8367504;28;20170;-68
2022/09/14 03:30:15;;;;;;;13.43;11.17;;;13.60;99.90;;;;;;8366856;28;20189;-67
2022/09/14 03:34:16;;;;;;;12.53;11.20;;;13.60;99.90;;;;;;8363092;28;20181;-67
2022/09/14 03:38:16;;;;;;;11.77;10.30;;;13.60;99.90;;;;;;8365357;28;20300;-68
2022/09/14 03:42:17;;;;;;;8.60;7.70;;;13.60;99.90;;;;;;8361403;28;20212;-67
2022/09/14 03:46:20;;;;;;;10.77;9.67;;;13.50;99.90;;;;;;8364469;28;20181;-67
2022/09/14 03:50:21;;;;;;;9.67;8.63;;;13.40;99.90;;;;;;8363541;28;20181;-67
2022/09/14 03:54:22;;;;;;;10.90;9.43;;;13.40;99.90;;;;;;8360881;28;20180;-67
2022/09/14 03:58:23;;;;;;;11.27;10.10;;;13.40;99.90;;;;;;8362260;28;20205;-67
2022/09/14 04:02:24;;;;;;;12.70;10.00;;;13.30;99.90;;;;;;8361372;28;20177;-67
2022/09/14 04:06:25;;;;;;;13.67;8.93;;;13.30;99.90;;;;;;8363566;28;20174;-67
2022/09/14 04:10:26;;;;;;;13.10;9.57;;;13.20;99.90;;;;;;8365320;28;20197;-68
2022/09/14 04:14:27;;;;;;;9.10;8.20;;;13.20;99.90;;;;;;8366922;28;20487;-68
2022/09/14 04:18:28;;;;;;;13.67;9.70;;;13.20;99.90;;;;;;8367542;28;20316;-68
2022/09/14 04:22:29;;;;;;;10.00;8.70;;;13.20;99.90;;;;;;8364709;28;20205;-67
2022/09/14 04:26:31;;;;;;;9.20;7.93;;;13.20;99.90;;;;;;8363044;28;20182;-68
2022/09/14 04:30:32;;;;;;;11.40;9.03;;;13.10;99.90;;;;;;8361707;28;20320;-68
2022/09/14 04:34:32;;;;;;;13.03;10.77;;;13.00;99.90;;;;;;8363534;28;20186;-68
2022/09/14 04:38:35;;;;;;;11.23;9.97;;;13.00;99.90;;;;;;8365452;28;20232;-68
2022/09/14 04:42:35;;;;;;;12.30;9.80;;;13.00;99.90;;;;;;8361551;28;20186;-68
2022/09/14 04:46:38;;;;;;;10.23;8.50;;;13.00;99.90;;;;;;8365424;28;20177;-67
2022/09/14 04:50:39;;;;;;;8.67;7.73;;;12.90;99.90;;;;;;8361737;28;20188;-68
2022/09/14 04:54:40;;;;;;;9.63;8.40;;;12.90;99.90;;;;;;8368177;28;20201;-68
2022/09/14 04:58:46;;;;;;;10.43;8.63;;;12.90;99.90;;;;;;8369088;28;20212;-68
2022/09/14 05:02:46;;;;;;;9.50;8.00;;;13.00;99.90;;;;;;8375557;28;20216;-68
2022/09/14 05:06:49;;;;;;;10.03;8.73;;;13.00;99.90;;;;;;8367281;28;20191;-68
2022/09/14 05:10:54;;;;;;;8.83;7.93;;;13.00;99.90;;;;;;8368976;28;20181;-68
2022/09/14 05:14:55;;;;;;;10.73;9.27;;;13.00;99.90;;;;;;8378897;28;20236;-68
2022/09/14 05:19:00;;;;;;;9.93;8.73;;;13.00;99.90;;;;;;8365294;28;20209;-68
2022/09/14 05:23:01;;;;;;;10.33;8.77;;;13.10;99.90;;;;;;8367154;28;20178;-68
2022/09/14 05:27:02;;;;;;;15.93;10.93;;;13.10;99.90;;;;;;8366793;28;20215;-68
2022/09/14 05:31:05;;;;;;;11.37;10.23;;;13.20;99.90;;;;;;8370655;28;20181;-72
2022/09/14 05:35:06;;;;;;;13.30;11.53;;;13.30;99.90;;;;;;8368975;28;20335;-68
2022/09/14 05:39:08;;;;;;;13.97;10.77;;;13.50;99.90;;;;;;8366805;28;20211;-68
2022/09/14 05:43:09;;;;;;;11.90;9.73;;;13.60;99.90;;;;;;8362393;28;20242;-68
2022/09/14 05:47:10;;;;;;;11.33;8.90;;;13.70;99.90;;;;;;8370405;28;20231;-68
2022/09/14 05:51:14;;;;;;;11.07;8.17;;;13.80;99.90;;;;;;8370234;28;20182;-67
2022/09/14 05:55:15;;;;;;;10.27;8.33;;;14.00;99.90;;;;;;8384162;28;20220;-68
2022/09/14 05:59:19;;;;;;;8.67;7.43;;;14.10;99.90;;;;;;8371206;28;20202;-68
2022/09/14 06:03:19;;;;;;;11.00;7.63;;;14.20;99.90;;;;;;8368535;28;20268;-68
2022/09/14 06:07:20;;;;;;;8.60;7.33;;;14.30;99.90;;;;;;8367045;28;20180;-71
2022/09/14 06:11:24;;;;;;;7.13;6.23;;;14.50;99.90;;;;;;8368987;28;20264;-69
2022/09/14 06:15:25;;;;;;;10.23;7.13;;;14.70;99.90;;;;;;8367115;28;20182;-68
2022/09/14 06:19:26;;;;;;;10.13;6.67;;;14.80;99.90;;;;;;8364448;28;20210;-69
2022/09/14 06:23:28;;;;;;;8.07;6.10;;;14.90;99.90;;;;;;8367256;28;20182;-67
2022/09/14 06:27:28;;;;;;;10.00;6.00;;;15.00;99.90;;;;;;8374503;28;20228;-68
2022/09/14 06:31:29;;;;;;;7.97;5.43;;;15.10;99.90;;;;;;8369761;28;20190;-69
2022/09/14 06:35:30;;;;;;;9.13;4.67;;;15.20;99.90;;;;;;8364990;28;20190;-68
2022/09/14 06:39:31;;;;;;;11.00;5.07;;;15.40;99.90;;;;;;8368411;28;20465;-69
2022/09/14 06:43:34;;;;;;;7.73;5.00;;;15.50;99.90;;;;;;8367202;28;20193;-68
2022/09/14 06:47:38;;;;;;;9.73;5.63;;;15.70;99.90;;;;;;8364992;28;20193;-69
2022/09/14 06:51:43;;;;;;;6.77;4.83;;;15.90;99.90;;;;;;8367857;28;20321;-69
2022/09/14 06:55:44;;;;;;;5.93;5.30;;;16.00;99.90;;;;;;8364812;28;20189;-68
2022/09/14 06:59:45;;;;;;;8.37;5.10;;;16.10;99.90;;;;;;8364238;28;20324;-68
2022/09/14 07:03:47;;;;;;;8.33;5.73;;;16.10;99.90;;;;;;8361932;28;20264;-68
2022/09/14 07:07:51;;;;;;;9.97;5.73;;;16.10;99.90;;;;;;8367212;28;20234;-68
2022/09/14 07:11:53;;;;;;;7.47;6.00;;;16.10;99.90;;;;;;8371513;28;20212;-69
2022/09/14 07:15:54;;;;;;;7.67;5.43;;;16.20;99.90;;;;;;8372632;28;20255;-68
2022/09/14 07:19:55;;;;;;;10.40;6.87;;;16.20;99.90;;;;;;8369554;28;20224;-68
2022/09/14 07:23:56;;;;;;;7.20;6.03;;;16.10;99.90;;;;;;8363622;28;20181;-70
2022/09/14 07:27:59;;;;;;;6.60;5.43;;;16.10;99.90;;;;;;8361991;28;20182;-68
2022/09/14 07:32:00;;;;;;;8.10;5.17;;;16.10;99.90;;;;;;8364183;28;20189;-68
2022/09/14 07:36:09;;;;;;;8.07;4.70;;;16.10;99.90;;;;;;8367394;28;20200;-68
2022/09/14 07:40:10;;;;;;;10.10;5.43;;;16.20;99.90;;;;;;8363835;28;20225;-68
2022/09/14 07:44:16;;;;;;;6.37;4.30;;;16.50;99.90;;;;;;8363420;28;20185;-68
2022/09/14 07:48:16;;;;;;;6.80;4.00;;;16.80;99.90;;;;;;8375674;28;20186;-69
2022/09/14 07:52:17;;;;;;;6.70;3.93;;;17.20;99.90;;;;;;8357744;28;20182;-68
2022/09/14 07:56:19;;;;;;;6.73;3.40;;;17.40;1.00;;;;;;8362322;28;20197;-70
2022/09/14 08:00:20;;;;;;;6.47;3.30;;;17.60;99.90;;;;;;8365458;28;20268;-68
2022/09/14 08:04:22;;;;;;;5.33;2.83;;;17.60;99.90;;;;;;8361719;28;20206;-68
2022/09/14 08:08:23;;;;;;;6.03;3.90;;;17.70;99.90;;;;;;8368580;28;20189;-67
2022/09/14 08:12:27;;;;;;;7.73;3.27;;;17.50;62.60;;;;;;8361588;28;20193;-68
2022/09/14 08:16:29;;;;;;;8.77;4.17;;;17.40;90.70;;;;;;8364923;28;20193;-68
2022/09/14 08:20:30;;;;;;;9.73;2.87;;;17.40;44.50;;;;;;8373081;28;20206;-68
2022/09/14 08:24:32;;;;;;;4.30;3.07;;;17.50;1.00;;;;;;8363736;28;20174;-67
2022/09/14 08:28:34;;;;;;;5.60;2.77;;;17.40;1.00;;;;;;8365519;28;20208;-68
2022/09/14 08:32:35;;;;;;;5.43;3.40;;;17.30;1.00;;;;;;8362775;28;20235;-70
2022/09/14 08:36:39;;;;;;;7.83;3.37;;;17.40;8.20;;;;;;8360753;28;20189;-68
2022/09/14 08:40:46;;;;;;;6.90;3.80;;;17.60;1.00;;;;;;8380177;28;20213;-69
2022/09/14 08:44:55;;;;;;;6.03;3.00;;;17.90;1.00;;;;;;8368718;28;20272;-66
2022/09/14 08:48:57;;;;;;;5.43;2.97;;;18.20;1.00;;;;;;8370025;28;20272;-66
2022/09/14 08:52:59;;;;;;;4.47;2.97;;;18.40;1.00;;;;;;8363449;28;20200;-67
2022/09/14 08:57:14;;;;;;;7.77;3.73;;;18.40;1.00;;;;;;8364354;28;20185;-66
2022/09/14 09:01:39;;;;;;;5.70;3.20;;;18.50;1.00;;;;;;8364923;28;20209;-67
2022/09/14 09:06:21;;;;;;;5.17;2.83;;;18.40;1.00;;;;;;8365788;28;20193;-67
2022/09/14 09:10:25;;;;;;;4.97;3.67;;;18.60;1.00;;;;;;8364604;28;20190;-67
2022/09/14 09:14:35;;;;;;;5.70;3.20;;;18.60;99.90;;;;;;8360729;28;20639;-67
2022/09/14 09:19:02;;;;;;;5.77;3.00;;;18.50;99.90;;;;;;8358035;28;20222;-67
2022/09/14 09:23:26;;;;;;;5.17;3.00;;;18.70;99.90;;;;;;8358656;28;20185;-67
2022/09/14 09:27:27;;;;;;;5.40;2.93;;;18.90;99.90;;;;;;8365386;28;20185;-67
2022/09/14 09:31:34;;;;;;;6.87;2.90;;;19.10;99.90;;;;;;8360650;28;20402;-68
2022/09/14 09:35:35;;;;;;;4.97;2.53;;;19.40;99.90;;;;;;8367065;28;20192;-67
2022/09/14 09:39:36;;;;;;;5.63;2.73;;;19.60;99.90;;;;;;8362935;28;20212;-67
2022/09/14 09:43:57;;;;;;;4.67;2.80;;;19.50;99.90;;;;;;8371889;28;20198;-67
2022/09/14 09:48:08;;;;;;;7.43;2.77;;;19.50;99.90;;;;;;8368332;28;20197;-70
2022/09/14 09:52:15;;;;;;;4.00;2.27;;;19.40;99.90;;;;;;8369922;28;20184;-67
2022/09/14 09:56:27;;;;;;;6.03;2.40;;;19.20;99.90;;;;;;8365772;28;20178;-67
2022/09/14 10:00:28;;;;;;;3.73;1.90;;;19.30;99.90;;;;;;8367976;28;20209;-67
2022/09/14 10:04:29;;;;;;;4.27;2.00;;;19.40;99.90;;;;;;8365638;28;20690;-67
2022/09/14 10:08:33;;;;;;;5.07;2.23;;;19.10;99.90;;;;;;8374667;28;20216;-67
2022/09/14 10:12:36;;;;;;;6.87;2.40;;;19.10;99.90;;;;;;8366263;28;20200;-67
2022/09/14 10:16:41;;;;;;;6.37;2.30;;;19.00;99.90;;;;;;8367939;28;20216;-67
2022/09/14 10:20:44;;;;;;;4.30;1.90;;;18.80;99.90;;;;;;8360583;28;20216;-67
2022/09/14 10:25:14;;;;;;;5.83;2.23;;;18.70;99.90;;;;;;8365102;28;20178;-66
2022/09/14 10:29:23;;;;;;;5.90;2.43;;;18.50;99.90;;;;;;8366908;28;20194;-67
2022/09/14 10:33:24;;;;;;;3.20;2.03;;;18.30;99.90;;;;;;8365434;28;20182;-67
2022/09/14 10:38:03;;;;;;;3.50;2.03;;;18.40;99.90;;;;;;8366943;28;20778;-67
2022/09/14 10:42:16;;;;;;;3.27;1.80;;;18.50;99.90;;;;;;8370693;28;20213;-67
2022/09/14 10:46:28;;;;;;;4.83;2.10;;;18.60;99.90;;;;;;8375340;28;20174;-68
2022/09/14 10:50:47;;;;;;;4.53;1.83;;;19.00;99.90;;;;;;8367642;28;20209;-67
2022/09/14 10:55:24;;;;;;;3.97;1.93;;;19.50;99.90;;;;;;8375871;28;20189;-67
2022/09/14 10:59:40;;;;;;;4.77;2.17;;;20.10;99.90;;;;;;8372654;28;20210;-67
2022/09/14 11:03:53;;;;;;;5.37;2.70;;;20.40;99.90;;;;;;8363359;28;20189;-67
2022/09/14 11:07:53;;;;;;;4.87;1.80;;;20.70;99.90;;;;;;8368851;28;20178;-67
2022/09/14 11:12:32;;;;;;;5.63;2.30;;;21.20;87.70;;;;;;8365071;28;20206;-68
2022/09/14 11:16:55;;;;;;;3.50;1.93;;;21.60;59.00;;;;;;8359459;28;20228;-67
2022/09/14 11:21:11;;;;;;;2.47;1.57;;;21.80;47.60;;;;;;8366497;28;20210;-68
2022/09/14 11:25:11;;;;;;;4.27;1.70;;;22.00;44.00;;;;;;8364760;28;20182;-68
2022/09/14 11:29:15;;;;;;;4.33;1.90;;;22.10;35.00;;;;;;8368491;28;20232;-68
2022/09/14 11:33:24;;;;;;;3.00;1.80;;;22.30;22.70;;;;;;8370235;28;20157;-67
2022/09/14 11:38:02;;;;;;;4.77;2.10;;;22.30;13.10;;;;;;8365037;28;20193;-67
2022/09/14 11:42:17;;;;;;;2.37;1.60;;;22.40;17.40;;;;;;8353587;28;20221;-70
2022/09/14 11:46:34;;;;;;;5.47;2.00;;;22.40;13.50;;;;;;8369570;28;20273;-67
2022/09/14 11:50:37;;;;;;;6.43;2.33;;;22.40;7.40;;;;;;8365761;28;20191;-67
2022/09/14 11:54:39;;;;;;;3.10;1.77;;;22.10;21.80;;;;;;8365512;28;20186;-67
2022/09/14 11:58:40;;;;;;;4.13;1.90;;;21.70;41.00;;;;;;8361819;28;20248;-67
2022/09/14 12:02:41;;;;;;;3.10;2.00;;;21.70;67.70;;;;;;8363282;28;20188;-68
2022/09/14 12:06:46;;;;;;;4.03;1.90;;;21.70;87.60;;;;;;8363468;28;20185;-67
2022/09/14 12:11:06;;;;;;;4.40;1.80;;;21.90;73.30;;;;;;8364800;28;20266;-68
2022/09/14 12:15:28;;;;;;;3.83;2.17;;;22.10;70.70;;;;;;8371326;28;20273;-67
2022/09/14 12:19:30;;;;;;;3.77;2.37;;;22.40;49.00;;;;;;8364888;28;20217;-67
2022/09/14 12:23:38;;;;;;;4.27;2.20;;;22.60;50.10;;;;;;8366335;28;20241;-68
2022/09/14 12:27:41;;;;;;;3.33;2.30;;;22.60;61.40;;;;;;8365553;28;20189;-67
2022/09/14 12:31:46;;;;;;;4.27;2.47;;;22.60;52.90;;;;;;8365993;28;20311;-67
2022/09/14 12:35:47;;;;;;;4.90;2.37;;;22.40;74.50;;;;;;8362039;28;20276;-67
2022/09/14 12:40:11;;;;;;;6.33;2.40;;;22.20;86.90;;;;;;8360813;28;20208;-67
2022/09/14 12:44:48;;;;;;;3.80;2.17;;;22.30;92.30;;;;;;8368109;28;20196;-67
2022/09/14 12:48:53;;;;;;;4.20;2.23;;;22.60;58.10;;;;;;8356318;28;20201;-67
2022/09/14 12:52:56;;;;;;;3.27;2.40;;;22.80;57.40;;;;;;8363882;28;20196;-67
2022/09/14 12:57:33;;;;;;;7.53;3.00;;;22.70;81.70;;;;;;8367542;28;20197;-67
2022/09/14 13:01:37;;;;;;;5.60;2.63;;;22.50;71.50;;;;;;8360019;28;20213;-67
2022/09/14 13:05:42;;;;;;;4.00;2.70;;;22.10;90.70;;;;;;8369136;28;20181;-66
2022/09/14 13:09:56;;;;;;;5.07;2.70;;;22.00;97.30;;;;;;8363011;28;20193;-67
2022/09/14 13:13:58;;;;;;;6.80;3.20;;;21.70;99.90;;;;;;8367951;28;20648;-67
2022/09/14 13:18:17;;;;;;;8.47;3.70;;;21.60;99.90;;;;;;8368137;28;20208;-68
2022/09/14 13:22:21;;;;;;;4.67;3.13;;;21.50;99.90;;;;;;8369803;28;20188;-67
2022/09/14 13:26:26;;;;;;;6.20;2.90;;;21.40;99.90;;;;;;8369985;28;20187;-67
2022/09/14 13:30:29;;;;;;;7.67;3.10;;;21.60;99.90;;;;;;8362377;28;20182;-68
2022/09/14 13:34:35;;;;;;;5.40;2.87;;;21.60;99.90;;;;;;8371242;28;20181;-67
2022/09/14 13:38:37;;;;;;;3.83;2.50;;;21.60;99.90;;;;;;8374269;28;20187;-67
2022/09/14 13:42:39;;;;;;;5.17;2.50;;;21.50;99.90;;;;;;8366310;28;20186;-67
2022/09/14 13:46:40;;;;;;;4.77;2.67;;;21.30;99.90;;;;;;8374388;28;20200;-67
2022/09/14 13:50:45;;;;;;;6.60;3.40;;;21.00;99.90;;;;;;8376258;28;20189;-67
2022/09/14 13:54:53;;;;;;;4.23;2.50;;;20.80;99.90;;;;;;8369687;28;20247;-67
2022/09/14 13:59:20;;;;;;;5.20;3.00;;;20.70;99.90;;;;;;8368963;28;20671;-67
2022/09/14 14:03:29;;;;;;;3.87;2.50;;;20.70;99.90;;;;;;8365345;28;20315;-67
2022/09/14 14:07:32;;;;;;;3.20;2.50;;;20.70;99.90;;;;;;8370463;28;20182;-67
2022/09/14 14:11:35;;;;;;;4.77;2.80;;;20.70;99.90;;;;;;8366880;28;20213;-67
2022/09/14 14:15:41;;;;;;;4.23;2.87;;;20.80;99.90;;;;;;8368207;28;20196;-67
2022/09/14 14:19:42;;;;;;;5.53;2.93;;;20.80;99.90;;;;;;8366497;28;20220;-67
2022/09/14 14:23:43;;;;;;;6.53;2.90;;;20.70;99.90;;;;;;8368316;28;20260;-68
2022/09/14 14:27:46;;;;;;;3.87;2.80;;;20.70;99.90;;;;;;8368675;28;20195;-69
2022/09/14 14:31:47;;;;;;;5.50;2.80;;;20.70;99.90;;;;;;8371131;28;20193;-66
2022/09/14 14:35:51;;;;;;;5.17;2.87;;;20.60;99.90;;;;;;8365661;28;20186;-66
2022/09/14 14:39:52;;;;;;;7.17;3.50;;;20.50;99.90;;;;;;8372504;28;20221;-66
2022/09/14 14:43:53;;;;;;;6.00;4.03;;;20.40;99.90;;;;;;8368043;28;20508;-67
2022/09/14 14:47:54;;;;;;;8.53;4.40;;;20.30;99.90;;;;;;8366132;28;20170;-66
2022/09/14 14:51:55;;;;;;;8.40;5.07;;;20.20;1.00;;;;;;8372379;28;20185;-67
2022/09/14 14:55:56;;;;;;;6.03;3.93;;;20.10;1.00;;;;;;8368631;28;20190;-68
2022/09/14 14:59:57;;;;;;;9.07;4.50;;;20.10;1.00;;;;;;8365531;28;20558;-68
2022/09/14 15:04:03;;;;;;;6.50;4.17;;;20.00;1.00;;;;;;8362137;28;20180;-68
2022/09/14 15:08:04;;;;;;;8.60;6.27;;;19.90;1.00;;;;;;8374200;28;20189;-66
2022/09/14 15:12:05;;;;;;;5.87;4.27;;;19.80;99.90;;;;;;8365935;28;20224;-67
2022/09/14 15:16:06;;;;;;;8.33;6.37;;;19.60;99.90;;;;;;8369912;28;21170;-67
2022/09/14 15:20:08;;;;;;;8.77;5.33;;;19.50;99.90;;;;;;8363458;28;20270;-68
2022/09/14 15:24:12;;;;;;;5.63;4.60;;;19.30;99.90;;;;;;8358240;28;20474;-68
2022/09/14 15:28:13;;;;;;;5.23;4.40;;;19.20;1.00;;;;;;8368989;28;20189;-68
2022/09/14 15:32:14;;;;;;;4.90;4.00;;;19.20;1.00;;;;;;8363762;28;20192;-68
2022/09/14 15:36:41;;;;;;;4.63;4.10;;;19.10;1.00;;;;;;8365207;28;20182;-69
2022/09/14 15:40:42;;;;;;;6.53;4.20;;;19.00;99.90;;;;;;8370412;28;20232;-67
2022/09/14 15:44:43;;;;;;;8.97;4.93;;;18.90;99.90;;;;;;8364582;28;20181;-68
2022/09/14 15:48:44;;;;;;;6.07;4.27;;;18.90;1.00;;;;;;8363675;28;20192;-67
2022/09/14 15:52:45;;;;;;;6.40;4.87;;;18.80;1.00;;;;;;8364118;28;20188;-67
2022/09/14 15:56:49;;;;;;;5.77;4.43;;;18.80;1.00;;;;;;8361796;28;20213;-67
2022/09/14 16:00:49;;;;;;;5.23;4.60;;;18.70;94.30;;;;;;8377385;28;20209;-67
2022/09/14 16:04:50;;;;;;;4.90;4.40;;;18.70;99.90;;;;;;8363352;28;20268;-67
2022/09/14 16:08:51;;;;;;;7.10;5.30;;;18.60;1.00;;;;;;8363913;28;20186;-68
2022/09/14 16:12:54;;;;;;;6.27;5.30;;;18.50;1.00;;;;;;8359977;28;20205;-68
2022/09/14 16:16:54;;;;;;;9.53;5.80;;;18.40;99.90;;;;;;8359020;28;20197;-66
2022/09/14 16:20:55;;;;;;;6.13;4.97;;;18.30;1.00;;;;;;8361508;28;20209;-68
2022/09/14 16:24:56;;;;;;;7.20;4.60;;;18.20;1.00;;;;;;8363883;28;20180;-68
2022/09/14 16:28:58;;;;;;;5.77;4.80;;;18.10;1.00;;;;;;8363260;28;20186;-67
2022/09/14 16:32:58;;;;;;;5.00;4.57;;;18.00;99.90;;;;;;8366648;28;20186;-68
2022/09/14 16:36:59;;;;;;;5.47;4.80;;;18.00;99.90;;;;;;8359178;28;20197;-68
2022/09/14 16:41:01;;;;;;;7.70;6.87;;;18.00;99.90;;;;;;8364371;28;20268;-68
2022/09/14 16:45:02;;;;;;;8.90;6.50;;;17.90;99.90;;;;;;8362988;28;20174;-69
2022/09/14 16:49:05;;;;;;;8.67;6.30;;;17.80;99.90;;;;;;8366064;28;20277;-68
2022/09/14 16:53:05;;;;;;;8.30;6.20;;;17.80;1.00;;;;;;8366566;28;20182;-68
2022/09/14 16:57:06;;;;;;;7.20;5.80;;;17.70;99.90;;;;;;8370705;28;20188;-68
2022/09/14 17:01:14;;;;;;;6.30;5.70;;;17.60;99.90;;;;;;8371363;28;20211;-68
2022/09/14 17:05:15;;;;;;;8.47;5.97;;;17.60;99.90;;;;;;8370680;28;20214;-68
2022/09/14 17:09:22;;;;;;;8.17;6.17;;;17.60;1.00;;;;;;8373461;28;20194;-68
2022/09/14 17:13:24;;;;;;;7.60;6.23;;;17.50;8.70;;;;;;8371439;28;20225;-69
2022/09/14 17:17:25;;;;;;;6.27;5.67;;;17.50;13.80;;;;;;8373070;28;20201;-68
2022/09/14 17:21:29;;;;;;;9.10;6.50;;;17.40;99.90;;;;;;8375672;28;20208;-69
2022/09/14 17:25:31;;;;;;;11.37;6.13;;;17.40;99.90;;;;;;8368132;28;20235;-67
2022/09/14 17:29:37;;;;;;;8.27;6.43;;;17.30;99.90;;;;;;8369011;28;20456;-67
2022/09/14 17:33:38;;;;;;;8.03;6.83;;;17.20;99.90;;;;;;8360676;28;20177;-68
2022/09/14 17:37:39;;;;;;;15.43;12.07;;;17.20;99.90;;;;;;8368074;28;20219;-68
2022/09/14 17:41:41;;;;;;;15.23;12.30;;;17.20;99.90;;;;;;8366820;28;20217;-67
2022/09/14 17:45:56;;;;;;;22.17;14.13;;;17.10;99.90;;;;;;8364857;28;20174;-70
2022/09/14 17:49:57;;;;;;;21.73;15.07;;;17.10;99.90;;;;;;8372106;28;20190;-68
2022/09/14 17:54:00;;;;;;;23.30;17.87;;;17.10;99.90;;;;;;8365642;28;20239;-68
2022/09/14 17:58:01;;;;;;;32.27;23.20;;;17.10;99.90;;;;;;8366886;28;20205;-68
2022/09/14 18:02:02;;;;;;;23.03;17.93;;;17.10;99.90;;;;;;8369141;28;20260;-68
2022/09/14 18:06:05;;;;;;;15.03;11.80;;;17.10;99.90;;;;;;8366658;28;20178;-68
2022/09/14 18:10:06;;;;;;;14.93;10.93;;;17.10;99.90;;;;;;8368829;28;20219;-68
2022/09/14 18:14:11;;;;;;;10.30;9.17;;;17.00;99.90;;;;;;8366985;28;20522;-68
2022/09/14 18:18:12;;;;;;;11.83;9.00;;;17.00;99.90;;;;;;8369460;28;20194;-68
2022/09/14 18:22:14;;;;;;;8.73;7.83;;;17.00;99.90;;;;;;8369496;28;20197;-68
2022/09/14 18:26:15;;;;;;;9.77;7.37;;;16.90;99.90;;;;;;8364434;28;20177;-68
2022/09/14 18:30:16;;;;;;;10.53;7.57;;;16.90;99.90;;;;;;8367562;28;20188;-68
2022/09/14 18:34:18;;;;;;;8.93;7.23;;;16.80;99.90;;;;;;8367685;28;20177;-68
2022/09/14 18:38:19;;;;;;;9.00;7.77;;;16.80;99.90;;;;;;8367963;28;20182;-68
2022/09/14 18:42:20;;;;;;;9.03;7.40;;;16.80;99.90;;;;;;8366051;28;20659;-68
2022/09/14 18:46:21;;;;;;;8.30;6.80;;;16.70;99.90;;;;;;8367845;28;20211;-69
2022/09/14 18:50:23;;;;;;;9.33;7.43;;;16.70;99.90;;;;;;8382186;28;20260;-68
2022/09/14 18:54:24;;;;;;;7.57;6.87;;;16.70;99.90;;;;;;8366075;28;20452;-69
2022/09/14 18:58:25;;;;;;;7.40;6.60;;;16.70;99.90;;;;;;8366516;28;20254;-69
2022/09/14 19:02:26;;;;;;;8.53;7.60;;;16.60;99.90;;;;;;8367606;28;20229;-68
2022/09/14 19:06:31;;;;;;;11.47;8.17;;;16.60;99.90;;;;;;8366328;28;20178;-69
2022/09/14 19:10:36;;;;;;;14.87;12.30;;;16.60;99.90;;;;;;8371051;28;20185;-68
2022/09/14 19:14:37;;;;;;;16.13;13.70;;;16.60;99.90;;;;;;8361471;28;20434;-67
2022/09/14 19:18:39;;;;;;;16.63;13.67;;;16.60;99.90;;;;;;8364505;28;20231;-67
2022/09/14 19:22:39;;;;;;;13.23;10.57;;;16.60;99.90;;;;;;8368643;28;20268;-68
2022/09/14 19:26:48;;;;;;;11.23;10.13;;;16.60;99.90;;;;;;8361722;28;20185;-68
2022/09/14 19:30:49;;;;;;;16.40;12.93;;;16.60;99.90;;;;;;8369225;28;20199;-68
2022/09/14 19:34:50;;;;;;;16.90;13.60;;;16.60;99.90;;;;;;8366637;28;20193;-68
2022/09/14 19:38:52;;;;;;;17.73;14.80;;;16.60;99.90;;;;;;8366685;28;20340;-68
2022/09/14 19:42:53;;;;;;;17.60;14.27;;;16.60;99.90;;;;;;8374363;28;20181;-69
2022/09/14 19:46:55;;;;;;;17.43;12.80;;;16.60;99.90;;;;;;8365278;28;20429;-68
2022/09/14 19:51:00;;;;;;;12.97;11.00;;;16.60;99.90;;;;;;8369904;28;20193;-70
2022/09/14 19:55:01;;;;;;;16.97;12.93;;;16.60;99.90;;;;;;8368886;28;20201;-68
2022/09/14 19:59:04;;;;;;;17.57;14.20;;;16.60;99.90;;;;;;8366347;28;20197;-69
2022/09/14 20:03:04;;;;;;;21.83;16.70;;;16.60;99.90;;;;;;8365738;28;20281;-69
2022/09/14 20:07:06;;;;;;;25.07;17.70;;;16.60;99.90;;;;;;8364589;28;20208;-68
2022/09/14 20:11:09;;;;;;;28.00;20.53;;;16.50;99.90;;;;;;8363290;28;20181;-69
2022/09/14 20:15:10;;;;;;;27.33;20.93;;;16.50;99.90;;;;;;8360205;28;20291;-69
2022/09/14 20:19:16;;;;;;;16.80;14.87;;;16.40;99.90;;;;;;8366574;28;20382;-69
2022/09/14 20:23:17;;;;;;;18.93;15.40;;;16.40;99.90;;;;;;8365602;28;20185;-69
2022/09/14 20:27:18;;;;;;;13.70;11.77;;;16.40;99.90;;;;;;8366252;28;20181;-69
2022/09/14 20:31:19;;;;;;;15.23;13.00;;;16.40;99.90;;;;;;8358666;28;20189;-70
2022/09/14 20:35:20;;;;;;;15.07;12.10;;;16.30;99.90;;;;;;8362759;28;20183;-70
2022/09/14 20:39:22;;;;;;;14.43;11.87;;;16.30;99.90;;;;;;8363333;28;20239;-70
2022/09/14 20:43:24;;;;;;;12.47;11.17;;;16.30;99.90;;;;;;8361913;28;20226;-70
2022/09/14 20:47:24;;;;;;;12.83;10.03;;;16.30;99.90;;;;;;8359770;28;20211;-70
2022/09/14 20:51:26;;;;;;;9.40;8.40;;;16.20;99.90;;;;;;8364252;28;20268;-70
2022/09/14 20:55:27;;;;;;;11.10;8.90;;;16.20;99.90;;;;;;8363519;28;20182;-70
2022/09/14 20:59:29;;;;;;;16.73;14.53;;;16.20;99.90;;;;;;8366829;28;20209;-70
2022/09/14 21:03:31;;;;;;;19.07;16.67;;;16.20;99.90;;;;;;8363587;28;20173;-71
2022/09/14 21:07:32;;;;;;;21.13;14.87;;;16.00;99.90;;;;;;8365541;28;20177;-71
2022/09/14 21:11:33;;;;;;;17.90;15.17;;;15.90;99.90;;;;;;8362918;28;20274;-71